createdAt,value
2022-10-24T00:01:33.611Z,100.00
2022-10-24T00:04:02.837Z,100.00
2022-10-24T00:06:30.680Z,100.00
2022-10-24T00:08:58.453Z,100.00
2022-10-24T00:11:28.827Z,100.00
2022-10-24T00:13:57.822Z,100.00
2022-10-24T00:16:25.419Z,100.00
2022-10-24T00:18:53.354Z,100.00
2022-10-24T00:21:22.661Z,100.00
2022-10-24T00:23:50.503Z,100.00
2022-10-24T00:26:18.144Z,100.00
2022-10-24T00:28:45.889Z,100.00
2022-10-24T00:31:15.939Z,100.00
2022-10-24T00:33:44.346Z,100.00
2022-10-24T00:36:12.914Z,100.00
2022-10-24T00:38:41.897Z,100.00
2022-10-24T00:41:09.764Z,100.00
2022-10-24T00:43:37.503Z,100.00
2022-10-24T00:46:05.355Z,100.00
2022-10-24T00:48:35.827Z,100.00
2022-10-24T00:51:06.743Z,100.00
2022-10-24T00:53:36.996Z,100.00
2022-10-24T00:56:07.254Z,100.00
2022-10-24T00:58:36.253Z,100.00
2022-10-24T01:01:04.969Z,100.00
2022-10-24T01:03:33.142Z,100.00
2022-10-24T01:06:19.215Z,100.00
2022-10-24T01:08:49.890Z,100.00
2022-10-24T01:11:31.964Z,100.00
2022-10-24T01:14:07.582Z,100.00
2022-10-24T01:16:39.457Z,100.00
2022-10-24T01:19:15.624Z,100.00
2022-10-24T01:21:45.637Z,100.00
2022-10-24T01:24:37.139Z,100.00
2022-10-24T01:27:35.591Z,100.00
2022-10-24T01:30:14.748Z,100.00
2022-10-24T01:32:46.929Z,100.00
2022-10-24T01:38:03.767Z,100.00
2022-10-24T01:40:35.118Z,100.00
2022-10-24T01:43:06.423Z,100.00
2022-10-24T01:45:37.375Z,100.00
2022-10-24T01:48:07.331Z,100.00
2022-10-24T01:50:36.576Z,100.00
2022-10-24T01:53:05.290Z,100.00
2022-10-24T01:55:33.504Z,100.00
2022-10-24T01:58:01.856Z,100.00
2022-10-24T02:00:29.526Z,100.00
2022-10-24T02:03:01.358Z,100.00
2022-10-24T02:05:33.141Z,100.00
2022-10-24T02:08:04.068Z,100.00
2022-10-24T02:10:35.937Z,100.00
2022-10-24T02:13:07.352Z,100.00
2022-10-24T02:15:37.868Z,100.00
2022-10-24T02:18:07.615Z,100.00
2022-10-24T02:20:36.981Z,100.00
2022-10-24T02:23:08.045Z,100.00
2022-10-24T02:25:38.647Z,100.00
2022-10-24T02:28:08.731Z,100.00
2022-10-24T02:30:39.235Z,100.00
2022-10-24T02:33:09.060Z,100.00
2022-10-24T02:35:37.606Z,100.00
2022-10-24T02:38:10.794Z,100.00
2022-10-24T02:40:38.856Z,100.00
2022-10-24T02:43:07.621Z,100.00
2022-10-24T02:45:37.052Z,100.00
2022-10-24T02:48:09.612Z,100.00
2022-10-24T02:50:39.013Z,100.00
2022-10-24T02:53:06.871Z,100.00
2022-10-24T02:55:34.680Z,100.00
2022-10-24T02:58:02.434Z,100.00
2022-10-24T03:00:30.196Z,100.00
2022-10-24T03:02:57.952Z,100.00
2022-10-24T03:05:27.243Z,100.00
2022-10-24T03:07:54.824Z,100.00
2022-10-24T03:10:22.679Z,100.00
2022-10-24T03:12:50.247Z,100.00
2022-10-24T03:15:17.901Z,100.00
2022-10-24T03:17:48.999Z,100.00
2022-10-24T03:20:16.826Z,100.00
2022-10-24T03:22:45.969Z,100.00
2022-10-24T03:25:13.676Z,100.00
2022-10-24T03:27:41.528Z,100.00
2022-10-24T03:30:10.453Z,100.00
2022-10-24T03:32:37.960Z,100.00
2022-10-24T03:35:09.202Z,100.00
2022-10-24T03:37:39.666Z,100.00
2022-10-24T03:40:11.033Z,100.00
2022-10-24T03:42:38.951Z,100.00
2022-10-24T03:45:07.853Z,100.00
2022-10-24T03:47:37.602Z,100.00
2022-10-24T03:50:06.251Z,100.00
2022-10-24T03:52:33.866Z,100.00
2022-10-24T03:55:01.458Z,100.00
2022-10-24T03:57:30.638Z,100.00
2022-10-24T03:59:58.361Z,100.00
2022-10-24T04:02:26.694Z,100.00
2022-10-24T04:04:54.386Z,100.00
2022-10-24T04:07:22.149Z,100.00
2022-10-24T04:09:50.775Z,100.00
2022-10-24T04:12:18.321Z,100.00
2022-10-24T04:14:47.440Z,100.00
2022-10-24T04:17:14.944Z,100.00
2022-10-24T04:19:42.897Z,100.00
2022-10-24T04:22:10.759Z,100.00
2022-10-24T04:24:39.599Z,100.00
2022-10-24T04:27:08.449Z,100.00
2022-10-24T04:29:36.384Z,100.00
2022-10-24T04:32:05.762Z,100.00
2022-10-24T04:34:36.970Z,100.00
2022-10-24T04:37:04.876Z,100.00
2022-10-24T04:39:32.689Z,100.00
2022-10-24T04:42:00.759Z,100.00
2022-10-24T04:44:28.524Z,100.00
2022-10-24T04:46:56.277Z,100.00
2022-10-24T04:49:25.192Z,100.00
2022-10-24T04:51:52.891Z,100.00
2022-10-24T04:54:20.652Z,100.00
2022-10-24T04:56:48.344Z,100.00
2022-10-24T04:59:16.079Z,100.00
2022-10-24T05:01:44.064Z,100.00
2022-10-24T05:04:12.573Z,100.00
2022-10-24T05:06:44.206Z,100.00
2022-10-24T05:09:12.958Z,100.00
2022-10-24T05:11:40.694Z,100.00
2022-10-24T05:14:08.470Z,100.00
2022-10-24T05:16:36.118Z,100.00
2022-10-24T05:19:03.724Z,100.00
2022-10-24T05:21:31.484Z,100.00
2022-10-24T05:24:00.693Z,100.00
2022-10-24T05:26:28.539Z,100.00
2022-10-24T05:28:56.123Z,100.00
2022-10-24T05:31:24.599Z,100.00
2022-10-24T05:33:52.236Z,100.00
2022-10-24T05:36:20.119Z,100.00
2022-10-24T05:38:47.840Z,100.00
2022-10-24T05:41:17.052Z,100.00
2022-10-24T05:43:44.604Z,100.00
2022-10-24T05:46:12.382Z,100.00
2022-10-24T05:48:40.633Z,100.00
2022-10-24T05:51:09.039Z,100.00
2022-10-24T05:53:36.782Z,100.00
2022-10-24T05:56:05.988Z,100.00
2022-10-24T05:58:35.323Z,100.00
2022-10-24T06:01:03.335Z,100.00
2022-10-24T06:03:31.072Z,100.00
2022-10-24T06:05:58.833Z,100.00
2022-10-24T06:08:26.498Z,100.00
2022-10-24T06:10:54.257Z,100.00
2022-10-24T06:13:21.893Z,100.00
2022-10-24T06:15:50.904Z,100.00
2022-10-24T06:18:18.675Z,100.00
2022-10-24T06:20:46.378Z,100.00
2022-10-24T06:23:14.280Z,100.00
2022-10-24T06:25:42.762Z,100.00
2022-10-24T06:28:12.738Z,100.00
2022-10-24T06:30:41.166Z,100.00
2022-10-24T06:33:10.096Z,100.00
2022-10-24T06:35:37.886Z,100.00
2022-10-24T06:38:05.501Z,100.00
2022-10-24T06:40:33.688Z,100.00
2022-10-24T06:43:01.213Z,100.00
2022-10-24T06:45:29.070Z,100.00
2022-10-24T06:47:57.165Z,100.00
2022-10-24T06:50:26.377Z,100.00
2022-10-24T06:52:54.003Z,100.00
2022-10-24T06:55:21.658Z,100.00
2022-10-24T06:57:49.298Z,100.00
2022-10-24T07:00:17.678Z,100.00
2022-10-24T07:02:45.594Z,100.00
2022-10-24T07:05:14.645Z,100.00
2022-10-24T07:07:44.515Z,100.00
2022-10-24T07:10:14.508Z,100.00
2022-10-24T07:12:43.560Z,100.00
2022-10-24T07:15:12.206Z,100.00
2022-10-24T07:17:40.803Z,100.00
2022-10-24T07:20:09.265Z,100.00
2022-10-24T07:22:37.441Z,100.00
2022-10-24T07:25:08.241Z,100.00
2022-10-24T07:27:36.149Z,100.00
2022-10-24T07:30:05.710Z,100.00
2022-10-24T07:32:33.921Z,100.00
2022-10-24T07:35:01.628Z,100.00
2022-10-24T07:37:29.594Z,100.00
2022-10-24T07:39:57.373Z,100.00
2022-10-24T07:42:26.495Z,100.00
2022-10-24T07:44:54.400Z,100.00
2022-10-24T07:47:22.143Z,100.00
2022-10-24T07:49:49.828Z,100.00
2022-10-24T07:52:17.756Z,100.00
2022-10-24T07:54:45.491Z,100.00
2022-10-24T07:57:13.539Z,100.00
2022-10-24T07:59:42.980Z,100.00
2022-10-24T08:02:11.952Z,100.00
2022-10-24T08:04:39.600Z,100.00
2022-10-24T08:07:11.715Z,100.00
2022-10-24T08:09:39.466Z,100.00
2022-10-24T08:12:07.604Z,100.00
2022-10-24T08:14:35.167Z,100.00
2022-10-24T08:17:04.579Z,100.00
2022-10-24T08:19:32.616Z,100.00
2022-10-24T08:22:00.953Z,100.00
2022-10-24T08:24:28.993Z,100.00
2022-10-24T08:26:56.758Z,100.00
2022-10-24T08:29:25.195Z,100.00
2022-10-24T08:31:54.737Z,100.00
2022-10-24T08:34:24.518Z,100.00
2022-10-24T08:36:52.254Z,100.00
2022-10-24T08:39:20.337Z,100.00
2022-10-24T08:41:51.390Z,100.00
2022-10-24T08:44:22.604Z,100.00
2022-10-24T08:46:54.083Z,100.00
2022-10-24T08:49:29.789Z,100.00
2022-10-24T08:52:00.378Z,100.00
2022-10-24T08:54:30.688Z,100.00
2022-10-24T08:56:59.965Z,100.00
2022-10-24T08:59:30.319Z,100.00
2022-10-24T09:02:04.119Z,100.00
2022-10-24T09:04:37.891Z,100.00
2022-10-24T09:07:06.452Z,100.00
2022-10-24T09:09:37.769Z,100.00
2022-10-24T09:12:09.903Z,100.00
2022-10-24T09:14:38.860Z,100.00
2022-10-24T09:17:13.851Z,100.00
2022-10-24T09:19:45.694Z,100.00
2022-10-24T09:22:13.722Z,100.00
2022-10-24T09:24:45.383Z,100.00
2022-10-24T09:27:16.285Z,100.00
2022-10-24T09:29:44.830Z,100.00
2022-10-24T09:32:17.889Z,100.00
2022-10-24T09:34:47.543Z,100.00
2022-10-24T09:37:42.521Z,100.00
2022-10-24T09:40:22.320Z,100.00
2022-10-24T09:42:58.945Z,97.25
2022-10-24T09:45:40.667Z,99.25
2022-10-24T09:48:19.340Z,95.13
2022-10-24T09:50:50.156Z,95.08
2022-10-24T09:53:27.238Z,92.97
2022-10-24T09:55:58.456Z,92.02
2022-10-24T09:58:32.917Z,90.66
2022-10-24T10:01:06.723Z,89.51
2022-10-24T10:03:35.578Z,88.91
2022-10-24T10:06:09.646Z,88.43
2022-10-24T10:08:38.851Z,90.89
2022-10-24T10:11:08.259Z,90.23
2022-10-24T10:13:41.093Z,90.46
2022-10-24T10:16:12.708Z,92.87
2022-10-24T10:18:46.549Z,90.90
2022-10-24T10:21:16.993Z,88.80
2022-10-24T10:23:46.142Z,89.84
2022-10-24T10:26:17.079Z,91.35
2022-10-24T10:28:49.244Z,90.36
2022-10-24T10:31:18.532Z,91.79
2022-10-24T10:33:53.223Z,87.00
2022-10-24T10:36:30.933Z,86.95
2022-10-24T10:39:14.119Z,84.02
2022-10-24T10:41:46.996Z,84.73
2022-10-24T10:44:25.854Z,84.30
2022-10-24T10:46:59.698Z,87.22
2022-10-24T10:49:30.492Z,88.32
2022-10-24T10:52:05.314Z,87.77
2022-10-24T10:54:50.441Z,85.86
2022-10-24T10:57:21.260Z,85.35
2022-10-24T10:59:53.714Z,86.90
2022-10-24T11:02:38.865Z,86.50
2022-10-24T11:05:17.675Z,85.56
2022-10-24T11:07:52.259Z,87.71
2022-10-24T11:10:22.493Z,89.31
2022-10-24T11:12:50.054Z,90.44
2022-10-24T11:15:22.383Z,89.69
2022-10-24T11:17:54.255Z,87.95
2022-10-24T11:20:26.429Z,88.03
2022-10-24T11:22:59.304Z,85.46
2022-10-24T11:25:31.387Z,87.36
2022-10-24T11:28:04.296Z,86.26
2022-10-24T11:30:42.367Z,83.80
2022-10-24T11:33:15.903Z,82.33
2022-10-24T11:35:52.615Z,80.43
2022-10-24T11:38:22.885Z,78.45
2022-10-24T11:40:58.717Z,82.09
2022-10-24T11:43:29.958Z,80.92
2022-10-24T11:46:01.344Z,80.05
2022-10-24T11:48:36.351Z,77.23
2022-10-24T11:51:11.115Z,79.52
2022-10-24T11:53:52.299Z,80.25
2022-10-24T11:56:27.368Z,78.44
2022-10-24T11:58:58.367Z,79.84
2022-10-24T12:01:49.015Z,81.59
2022-10-24T12:04:27.995Z,82.48
2022-10-24T12:07:36.024Z,82.38
2022-10-24T12:10:21.108Z,79.96
2022-10-24T12:13:06.630Z,82.53
2022-10-24T12:15:45.884Z,81.28
2022-10-24T12:18:27.088Z,82.80
2022-10-24T12:20:55.619Z,79.75
2022-10-24T12:23:27.437Z,78.65
2022-10-24T12:26:18.629Z,78.32
2022-10-24T12:28:54.807Z,78.44
2022-10-24T12:31:27.105Z,80.44
2022-10-24T12:34:49.180Z,78.37
2022-10-24T12:37:34.098Z,78.66
2022-10-24T12:40:40.245Z,77.18
2022-10-24T12:43:18.353Z,74.30
2022-10-24T12:45:46.000Z,78.12
2022-10-24T12:48:30.357Z,76.76
2022-10-24T12:51:00.702Z,79.37
2022-10-24T12:54:02.597Z,78.47
2022-10-24T12:56:31.510Z,77.35
2022-10-24T12:59:26.347Z,78.51
2022-10-24T13:02:35.194Z,80.24
2022-10-24T13:05:17.350Z,79.68
2022-10-24T13:08:06.268Z,81.54
2022-10-24T13:10:45.585Z,82.50
2022-10-24T13:13:54.886Z,81.99
2022-10-24T13:16:31.564Z,81.62
2022-10-24T13:19:09.286Z,81.46
2022-10-24T13:21:46.868Z,78.74
2022-10-24T13:24:24.600Z,80.51
2022-10-24T13:27:24.102Z,80.14
2022-10-24T13:30:25.248Z,74.53
2022-10-24T13:32:54.002Z,75.10
2022-10-24T13:35:26.194Z,76.34
2022-10-24T13:38:00.646Z,73.98
2022-10-24T13:40:32.555Z,71.24
2022-10-24T13:43:07.643Z,70.57
2022-10-24T13:45:43.305Z,68.66
2022-10-24T13:48:16.385Z,68.65
2022-10-24T13:50:49.494Z,71.40
2022-10-24T13:53:28.221Z,67.61
2022-10-24T13:56:00.407Z,71.26
2022-10-24T13:58:31.587Z,77.71
2022-10-24T14:01:04.508Z,76.08
2022-10-24T14:03:34.320Z,77.90
2022-10-24T14:06:03.398Z,80.65
2022-10-24T14:08:32.702Z,84.17
2022-10-24T14:11:01.967Z,84.20
2022-10-24T14:13:33.159Z,81.41
2022-10-24T14:16:02.279Z,79.07
2022-10-24T14:18:30.070Z,83.35
2022-10-24T14:21:00.541Z,85.36
2022-10-24T14:23:31.080Z,86.29
2022-10-24T14:26:01.821Z,84.01
2022-10-24T14:28:34.483Z,86.24
2022-10-24T14:31:03.687Z,88.85
2022-10-24T14:33:32.360Z,88.30
2022-10-24T14:36:01.450Z,90.01
2022-10-24T14:38:29.730Z,89.14
2022-10-24T14:41:08.273Z,90.61
2022-10-24T14:43:44.061Z,93.53
2022-10-24T14:46:30.868Z,94.07
2022-10-24T14:49:02.912Z,100.00
2022-10-24T14:51:38.606Z,100.00
2022-10-24T14:54:17.225Z,100.00
2022-10-24T14:56:44.842Z,100.00
2022-10-24T14:59:23.432Z,100.00
2022-10-24T15:01:59.309Z,96.91
2022-10-24T15:04:32.383Z,94.13
2022-10-24T15:07:14.125Z,92.03
2022-10-24T15:09:52.802Z,93.68
2022-10-24T15:12:27.242Z,97.03
2022-10-24T15:14:57.267Z,99.39
2022-10-24T15:17:32.442Z,100.00
2022-10-24T15:20:02.597Z,100.00
2022-10-24T15:22:32.254Z,100.00
2022-10-24T15:25:01.384Z,100.00
2022-10-24T15:27:31.368Z,100.00
2022-10-24T15:30:00.447Z,100.00
2022-10-24T15:32:27.979Z,100.00
2022-10-24T15:34:55.983Z,100.00
2022-10-24T15:37:25.260Z,100.00
2022-10-24T15:39:54.417Z,100.00
2022-10-24T15:42:22.796Z,100.00
2022-10-24T15:44:50.526Z,100.00
2022-10-24T15:47:23.717Z,100.00
2022-10-24T15:49:52.092Z,100.00
2022-10-24T15:52:19.624Z,100.00
2022-10-24T15:54:47.242Z,100.00
2022-10-24T15:57:20.813Z,100.00
2022-10-24T15:59:48.353Z,100.00
2022-10-24T16:02:22.115Z,100.00
2022-10-24T16:04:50.482Z,100.00
2022-10-24T16:07:18.025Z,100.00
2022-10-24T16:09:45.646Z,100.00
2022-10-24T16:12:13.548Z,100.00
2022-10-24T16:14:41.226Z,100.00
2022-10-24T16:17:08.789Z,100.00
2022-10-24T16:19:38.081Z,100.00
2022-10-24T16:22:07.842Z,100.00
2022-10-24T16:24:35.447Z,100.00
2022-10-24T16:27:03.145Z,100.00
2022-10-24T16:29:30.848Z,100.00
2022-10-24T16:31:58.351Z,100.00
2022-10-24T16:34:25.948Z,100.00
2022-10-24T16:36:56.048Z,100.00
2022-10-24T16:39:24.193Z,100.00
2022-10-24T16:41:55.294Z,100.00
2022-10-24T16:44:23.065Z,100.00
2022-10-24T16:46:53.760Z,100.00
2022-10-24T16:49:22.370Z,100.00
2022-10-24T16:51:49.974Z,100.00
2022-10-24T16:54:20.484Z,100.00
2022-10-24T16:56:53.378Z,100.00
2022-10-24T16:59:21.983Z,100.00
2022-10-24T17:01:50.175Z,100.00
2022-10-24T17:04:17.812Z,100.00
2022-10-24T17:06:45.550Z,100.00
2022-10-24T17:09:13.632Z,100.00
2022-10-24T17:11:46.505Z,100.00
2022-10-24T17:14:14.923Z,100.00
2022-10-24T17:16:43.519Z,100.00
2022-10-24T17:19:18.318Z,100.00
2022-10-24T17:21:47.867Z,100.00
2022-10-24T17:24:16.806Z,100.00
2022-10-24T17:26:45.885Z,100.00
2022-10-24T17:29:14.423Z,100.00
2022-10-24T17:31:42.387Z,100.00
2022-10-24T17:34:11.244Z,100.00
2022-10-24T17:36:40.757Z,100.00
2022-10-24T17:39:13.290Z,100.00
2022-10-24T17:41:41.604Z,100.00
2022-10-24T17:44:16.705Z,100.00
2022-10-24T17:46:44.904Z,100.00
2022-10-24T17:49:16.457Z,100.00
2022-10-24T17:51:48.243Z,100.00
2022-10-24T17:54:16.463Z,100.00
2022-10-24T17:56:44.341Z,100.00
2022-10-24T17:59:13.629Z,100.00
2022-10-24T18:01:41.473Z,100.00
2022-10-24T18:04:09.133Z,100.00
2022-10-24T18:06:39.466Z,100.00
2022-10-24T18:09:11.902Z,100.00
2022-10-24T18:11:40.037Z,100.00
2022-10-24T18:14:07.963Z,100.00
2022-10-24T18:16:39.078Z,100.00
2022-10-24T18:19:06.976Z,100.00
2022-10-24T18:21:34.933Z,100.00
2022-10-24T18:24:02.866Z,100.00
2022-10-24T18:26:30.469Z,100.00
2022-10-24T18:28:59.606Z,100.00
2022-10-24T18:31:29.417Z,100.00
2022-10-24T18:34:02.466Z,100.00
2022-10-24T18:36:34.177Z,100.00
2022-10-24T18:39:02.343Z,100.00
2022-10-24T18:41:39.710Z,100.00
2022-10-24T18:44:22.111Z,100.00
2022-10-24T18:46:50.794Z,100.00
2022-10-24T18:49:21.030Z,100.00
2022-10-24T18:51:52.557Z,100.00
2022-10-24T18:54:21.843Z,100.00
2022-10-24T18:56:50.048Z,100.00
2022-10-24T18:59:20.460Z,100.00
2022-10-24T19:01:54.228Z,100.00
2022-10-24T19:04:25.909Z,100.00
2022-10-24T19:06:56.367Z,100.00
2022-10-24T19:09:25.820Z,100.00
2022-10-24T19:11:53.710Z,100.00
2022-10-24T19:14:21.789Z,100.00
2022-10-24T19:16:50.888Z,100.00
2022-10-24T19:19:24.538Z,100.00
2022-10-24T19:21:53.749Z,100.00
2022-10-24T19:24:21.800Z,100.00
2022-10-24T19:26:50.109Z,100.00
2022-10-24T19:29:17.682Z,100.00
2022-10-24T19:31:46.009Z,100.00
2022-10-24T19:34:13.701Z,100.00
2022-10-24T19:36:43.358Z,100.00
2022-10-24T19:39:11.156Z,100.00
2022-10-24T19:41:39.514Z,100.00
2022-10-24T19:44:07.544Z,100.00
2022-10-24T19:46:36.038Z,100.00
2022-10-24T19:49:03.664Z,100.00
2022-10-24T19:51:31.565Z,100.00
2022-10-24T19:54:00.664Z,100.00
2022-10-24T19:56:30.964Z,100.00
2022-10-24T19:58:59.600Z,100.00
2022-10-24T20:01:28.853Z,100.00
2022-10-24T20:03:56.826Z,100.00
2022-10-24T20:06:26.477Z,100.00
2022-10-24T20:08:54.215Z,100.00
2022-10-24T20:11:23.911Z,100.00
2022-10-24T20:13:51.588Z,100.00
2022-10-24T20:16:19.835Z,100.00
2022-10-24T20:18:47.643Z,100.00
2022-10-24T20:21:17.610Z,100.00
2022-10-24T20:23:45.831Z,100.00
2022-10-24T20:26:15.687Z,100.00
2022-10-24T20:28:46.123Z,100.00
2022-10-24T20:31:22.111Z,100.00
2022-10-24T20:33:49.992Z,100.00
2022-10-24T20:36:17.682Z,100.00
2022-10-24T20:38:45.379Z,100.00
2022-10-24T20:41:12.974Z,100.00
2022-10-24T20:43:40.659Z,100.00
2022-10-24T20:46:09.961Z,100.00
2022-10-24T20:48:38.023Z,100.00
2022-10-24T20:51:07.304Z,100.00
2022-10-24T20:53:34.949Z,100.00
2022-10-24T20:56:07.364Z,100.00
2022-10-24T20:58:37.529Z,100.00
2022-10-24T21:01:11.741Z,100.00
2022-10-24T21:03:40.435Z,100.00
2022-10-24T21:06:16.578Z,100.00
2022-10-24T21:08:44.686Z,100.00
2022-10-24T21:11:13.884Z,100.00
2022-10-24T21:13:41.414Z,100.00
2022-10-24T21:16:10.951Z,100.00
2022-10-24T21:18:38.900Z,100.00
2022-10-24T21:21:08.093Z,100.00
2022-10-24T21:23:36.055Z,100.00
2022-10-24T21:26:05.251Z,100.00
2022-10-24T21:28:33.031Z,100.00
2022-10-24T21:31:04.873Z,100.00
2022-10-24T21:33:34.252Z,100.00
2022-10-24T21:36:06.153Z,100.00
2022-10-24T21:38:33.869Z,100.00
2022-10-24T21:41:02.301Z,100.00
2022-10-24T21:43:32.325Z,100.00
2022-10-24T21:46:04.767Z,100.00
2022-10-24T21:48:34.054Z,100.00
2022-10-24T21:51:06.449Z,100.00
2022-10-24T21:53:37.280Z,100.00
2022-10-24T21:56:05.648Z,100.00
2022-10-24T21:58:33.618Z,100.00
2022-10-24T22:01:01.333Z,100.00
2022-10-24T22:03:29.302Z,100.00
2022-10-24T22:05:58.894Z,100.00
2022-10-24T22:08:26.438Z,100.00
2022-10-24T22:10:59.240Z,100.00
2022-10-24T22:13:27.516Z,100.00
2022-10-24T22:15:55.670Z,100.00
2022-10-24T22:18:24.027Z,100.00
2022-10-24T22:20:51.737Z,100.00
2022-10-24T22:23:20.963Z,100.00
2022-10-24T22:25:49.303Z,100.00
2022-10-24T22:28:17.307Z,100.00
2022-10-24T22:30:46.776Z,100.00
2022-10-24T22:33:18.833Z,100.00
2022-10-24T22:35:48.756Z,100.00
2022-10-24T22:38:16.745Z,100.00
2022-10-24T22:40:46.501Z,100.00
2022-10-24T22:43:14.968Z,100.00
2022-10-24T22:45:47.167Z,100.00
2022-10-24T22:48:17.094Z,100.00
2022-10-24T22:50:49.937Z,100.00
2022-10-24T22:53:19.892Z,100.00
2022-10-24T22:56:04.480Z,100.00
2022-10-24T22:58:32.611Z,100.00
2022-10-24T23:01:03.011Z,100.00
2022-10-24T23:03:37.563Z,100.00
2022-10-24T23:06:08.924Z,100.00
2022-10-24T23:08:39.789Z,100.00
2022-10-24T23:11:10.716Z,100.00
2022-10-24T23:13:38.990Z,100.00
2022-10-24T23:16:10.801Z,100.00
2022-10-24T23:18:38.791Z,100.00
2022-10-24T23:21:12.714Z,100.00
2022-10-24T23:23:40.804Z,100.00
2022-10-24T23:26:14.011Z,100.00
2022-10-24T23:28:47.551Z,100.00
2022-10-24T23:31:15.611Z,100.00
2022-10-24T23:33:43.820Z,100.00
2022-10-24T23:36:18.525Z,100.00
2022-10-24T23:38:47.431Z,100.00
2022-10-24T23:41:17.087Z,100.00
2022-10-24T23:43:45.063Z,100.00
2022-10-24T23:46:19.552Z,100.00
2022-10-24T23:48:54.562Z,100.00
2022-10-24T23:51:25.525Z,100.00
2022-10-24T23:53:55.126Z,100.00
2022-10-24T23:56:26.764Z,100.00
2022-10-24T23:58:54.439Z,100.00
